West Lafayette, IN (47906)

4:45 AM EDT on September 16, 2014 (GMT -0400)
Pine View Farms | Change Station
CLOSE
Current Station
Personal Weather Station
Location: West Lafayette, IN
Elevation: 696 ft
Nearby Weather Stations

Elev 696 ft 40.47 °N, 86.95 °W | Updated 3 seconds ago

Overcast
Overcast
55.1 °F
Feels Like 55.1 °F
N
0.4
Wind Variable Wind from NE
Gusts 1.8 mph

Today
High -- | Low -- °F
--% Chance of Precip.
Yesterday
High -- | Low -- °F
Precip. -- in
7:29 AM 7:55 PM
Waning Gibbous, 47% visible
Pressure 30.15 in
Visibility 2.5 miles
Clouds Overcast 300 ft
Dew Point 52 °F
Humidity 90%
Rainfall 0.00 in
Snow Depth Not available.
UV 0 out of 12
Pollen 5.60 out of 12
Air Quality Not available.
Flu Activity Not available.
SPECI KLAF 160837Z AUTO 34003KT 2 1/2SM BR OVC003 12/12 A3015 RMK AO2 T01170117

More Conditions Fewer Conditions

Pressure 30.15 in
Visibility 2.5 miles
Clouds Overcast 300 ft
Dew Point 52 °F
Humidity 90%
Rainfall 0.00 in
Snow Depth Not available.
UV 0 out of 12
Pollen 5.60 out of 12
Air Quality Not available.
Flu Activity Not available.
SPECI KLAF 160837Z AUTO 34003KT 2 1/2SM BR OVC003 12/12 A3015 RMK AO2 T01170117

More Conditions Fewer Conditions

10-Day Weather Forecast

Almanac

Astronomy

Sep. 16, 2014 Rise Set
Actual Time 7:29 AM EDT 7:55 PM EDT
Civil Twilight 7:02 AM EDT 8:22 PM EDT
Nautical Twilight 6:30 AM EDT 8:54 PM EDT
Astronomical Twilight 5:56 AM EDT 9:27 PM EDT
Moon 12:38 AM EDT 3:19 PM EDT
Length of Visible Light 13h 20m
Length of Day
12h 25m
Tomorrow will be 2m 39s shorter.
Waning Gibbous, 47% of the Moon is Illuminated
Today
Waning Gibbous
Sep 24
New
Oct 1
First Quarter
Oct 8
Full
Oct 15
Last Quarter

Today's Extremes

State Highs State Lows

Community

WunderPhotos

Upload Photos

1,753,712 photos uploaded!

WunderBlogs® & News

Nearby

Snow Depth

Station Depth Elevation
No new snow has been reported.

Earthquake Activity

City Distance Mag. Time & Date
No recent earthquake activity has been reported nearby.
Minimum magnitude displayed is 2.5.

Coastal Water Temperatures

Place Temperature
No Stations Reporting

Nearby Weather Stations